Time;durP1;ratioP1;P1;durP2;ratioP2;P2;SDS_P1;SDS_P2;PMS_P1;PMS_P2;Temp;Humidity;BMP_temperature;BMP_pressure;BME280_temperature;BME280_humidity;BME280_pressure;Samples;Min_cycle;Max_cycle;Signal;HPM_P1;HPM_P2
2024/02/15 00:00:21;;;;;;;7.07;2.55;;;12.00;99.90;;;;;;5063141;28;20036;-71
2024/02/15 00:02:47;;;;;;;8.63;2.25;;;12.00;99.90;;;;;;5062219;28;20037;-73
2024/02/15 00:05:14;;;;;;;11.30;2.45;;;12.00;99.90;;;;;;5066202;28;20032;-74
2024/02/15 00:07:40;;;;;;;8.10;2.33;;;12.00;99.90;;;;;;5067917;28;20044;-73
2024/02/15 00:10:08;;;;;;;10.20;2.88;;;12.00;99.90;;;;;;5066629;28;20074;-73
2024/02/15 00:12:33;;;;;;;5.03;2.03;;;12.00;99.90;;;;;;5067311;28;20112;-72
2024/02/15 00:14:59;;;;;;;10.57;2.17;;;12.00;99.90;;;;;;5047554;28;20123;-72
2024/02/15 00:17:25;;;;;;;6.00;2.10;;;12.00;99.90;;;;;;5048380;28;20140;-74
2024/02/15 00:19:51;;;;;;;7.82;2.30;;;12.00;99.90;;;;;;5059742;28;20508;-71
2024/02/15 00:22:16;;;;;;;8.43;2.30;;;12.00;99.90;;;;;;5063235;28;20054;-71
2024/02/15 00:24:42;;;;;;;5.80;2.97;;;12.00;99.90;;;;;;5063537;28;20443;-73
2024/02/15 00:27:08;;;;;;;8.73;2.30;;;12.00;99.90;;;;;;5064438;28;20179;-72
2024/02/15 00:29:34;;;;;;;8.00;2.10;;;11.90;99.90;;;;;;5065308;28;20036;-72
2024/02/15 00:32:01;;;;;;;8.13;3.17;;;12.00;99.90;;;;;;5047968;28;20036;-71
2024/02/15 00:34:26;;;;;;;8.48;2.38;;;12.00;99.90;;;;;;5066906;28;20056;-72
2024/02/15 00:36:52;;;;;;;6.65;2.25;;;11.90;99.90;;;;;;5059147;28;20064;-74
2024/02/15 00:39:18;;;;;;;11.52;3.72;;;12.00;99.90;;;;;;5042541;28;20033;-72
2024/02/15 00:41:45;;;;;;;8.57;2.15;;;12.00;99.90;;;;;;5044552;28;20039;-73
2024/02/15 00:44:11;;;;;;;7.53;2.42;;;12.00;99.90;;;;;;5045354;28;20056;-72
2024/02/15 00:46:37;;;;;;;5.28;1.83;;;12.00;99.90;;;;;;5044358;28;20025;-73
2024/02/15 00:49:06;;;;;;;6.90;1.75;;;12.00;99.90;;;;;;5043367;28;20711;-72
2024/02/15 00:51:37;;;;;;;4.80;1.83;;;12.00;99.90;;;;;;5025329;28;20036;-73
2024/02/15 00:54:03;;;;;;;8.80;2.00;;;12.00;99.90;;;;;;5020696;28;20041;-72
2024/02/15 00:56:32;;;;;;;7.13;2.38;;;12.00;99.90;;;;;;5041776;28;20025;-71
2024/02/15 00:59:01;;;;;;;9.05;2.50;;;12.00;99.90;;;;;;5042162;28;20033;-72
2024/02/15 01:01:26;;;;;;;6.05;1.92;;;12.00;99.90;;;;;;5018282;28;20033;-75
2024/02/15 01:03:52;;;;;;;10.45;2.72;;;12.00;99.90;;;;;;5050619;28;20036;-73
2024/02/15 01:06:18;;;;;;;11.73;2.60;;;12.00;99.90;;;;;;5045745;28;20482;-74
2024/02/15 01:08:44;;;;;;;7.35;2.63;;;12.00;99.90;;;;;;5046419;28;20082;-73
2024/02/15 01:11:09;;;;;;;8.65;3.03;;;12.00;99.90;;;;;;5027655;28;20551;-72
2024/02/15 01:13:35;;;;;;;8.07;3.00;;;12.00;99.90;;;;;;5037891;28;20048;-71
2024/02/15 01:16:04;;;;;;;15.18;3.53;;;12.00;99.90;;;;;;5028849;28;20040;-74
2024/02/15 01:18:31;;;;;;;9.52;2.97;;;12.00;99.90;;;;;;5040728;28;20033;-70
2024/02/15 01:20:57;;;;;;;12.77;2.47;;;12.00;99.90;;;;;;5045538;28;20164;-72
2024/02/15 01:23:23;;;;;;;12.40;2.70;;;12.00;99.90;;;;;;5042174;28;20041;-74
2024/02/15 01:25:48;;;;;;;8.40;4.10;;;12.00;99.90;;;;;;5044105;28;20078;-73
2024/02/15 01:28:14;;;;;;;13.55;2.83;;;12.00;99.90;;;;;;5045625;28;20467;-73
2024/02/15 01:30:42;;;;;;;8.18;3.15;;;12.00;99.90;;;;;;5045673;28;20845;-72
2024/02/15 01:33:07;;;;;;;7.72;3.03;;;12.00;99.90;;;;;;5041257;28;20107;-72
2024/02/15 01:35:33;;;;;;;9.02;3.33;;;12.00;99.90;;;;;;5040419;28;20490;-72
2024/02/15 01:37:58;;;;;;;15.07;4.40;;;12.00;99.90;;;;;;5038080;28;20708;-72
2024/02/15 01:40:24;;;;;;;12.75;3.83;;;12.00;99.90;;;;;;5038405;28;20037;-73
2024/02/15 01:42:49;;;;;;;13.05;4.68;;;12.00;99.90;;;;;;5038038;28;20577;-74
2024/02/15 01:45:16;;;;;;;7.10;3.38;;;12.00;99.90;;;;;;5036513;28;20061;-72
2024/02/15 01:47:42;;;;;;;14.35;3.95;;;12.00;99.90;;;;;;5042287;28;20105;-73
2024/02/15 01:50:13;;;;;;;15.50;4.00;;;12.10;99.90;;;;;;5042259;28;20063;-73
2024/02/15 01:52:40;;;;;;;14.98;4.75;;;12.00;99.90;;;;;;5045535;28;20495;-73
2024/02/15 01:55:08;;;;;;;17.15;4.10;;;12.00;99.90;;;;;;5038266;28;20037;-72
2024/02/15 01:57:39;;;;;;;12.68;5.13;;;12.10;99.90;;;;;;5039264;28;20554;-72
2024/02/15 02:00:08;;;;;;;10.20;4.40;;;12.10;99.90;;;;;;5037608;28;20033;-73
2024/02/15 02:02:35;;;;;;;7.75;3.92;;;12.10;99.90;;;;;;5037044;28;20485;-71
2024/02/15 02:05:01;;;;;;;12.75;4.82;;;12.10;99.90;;;;;;5043628;28;20060;-72
2024/02/15 02:07:27;;;;;;;10.27;3.42;;;12.10;99.90;;;;;;5038299;28;20457;-73
2024/02/15 02:09:52;;;;;;;8.88;4.07;;;12.10;99.90;;;;;;5037411;28;20057;-71
2024/02/15 02:12:18;;;;;;;12.13;4.60;;;12.00;99.90;;;;;;5038974;28;20040;-71
2024/02/15 02:14:43;;;;;;;14.77;4.57;;;12.00;99.90;;;;;;5035881;28;20470;-73
2024/02/15 02:17:13;;;;;;;13.00;3.90;;;12.10;99.90;;;;;;5037328;28;20170;-75
2024/02/15 02:19:39;;;;;;;8.50;3.97;;;12.00;99.90;;;;;;5032876;28;20065;-73
2024/02/15 02:22:05;;;;;;;11.55;4.03;;;11.90;99.90;;;;;;5034630;28;20079;-72
2024/02/15 02:24:36;;;;;;;12.77;4.38;;;11.90;99.90;;;;;;5037576;28;20025;-73
2024/02/15 02:27:05;;;;;;;11.00;3.75;;;11.90;99.90;;;;;;5037279;28;20065;-72
2024/02/15 02:29:31;;;;;;;16.98;4.47;;;11.90;99.90;;;;;;5036934;28;20106;-72
2024/02/15 02:31:57;;;;;;;17.30;4.63;;;11.90;99.90;;;;;;5036489;28;20045;-72
2024/02/15 02:34:22;;;;;;;11.48;4.10;;;11.90;99.90;;;;;;5037947;28;20033;-72
2024/02/15 02:36:50;;;;;;;12.98;4.10;;;11.80;99.90;;;;;;5035236;28;20022;-72
2024/02/15 02:39:16;;;;;;;10.10;3.63;;;11.80;99.90;;;;;;5038218;28;20075;-73
2024/02/15 02:41:42;;;;;;;14.13;4.43;;;11.80;99.90;;;;;;5043894;28;20028;-72
2024/02/15 02:44:08;;;;;;;11.30;4.18;;;11.90;99.90;;;;;;5037142;28;20457;-72
2024/02/15 02:46:33;;;;;;;10.18;4.07;;;11.90;99.90;;;;;;5046178;28;20132;-71
2024/02/15 02:48:59;;;;;;;13.55;4.70;;;11.80;99.90;;;;;;5042660;28;20116;-72
2024/02/15 02:51:24;;;;;;;10.57;4.22;;;11.80;99.90;;;;;;5032380;28;20037;-71
2024/02/15 02:53:50;;;;;;;15.77;4.55;;;11.90;99.90;;;;;;5041724;28;20029;-72
2024/02/15 02:56:15;;;;;;;15.23;4.03;;;11.90;99.90;;;;;;5035674;28;20498;-72
2024/02/15 02:58:42;;;;;;;12.80;3.60;;;11.90;99.90;;;;;;5037277;28;20073;-75
2024/02/15 03:01:08;;;;;;;7.25;3.72;;;11.90;99.90;;;;;;5034813;28;20025;-73
2024/02/15 03:03:33;;;;;;;8.95;3.60;;;11.90;99.90;;;;;;5042159;28;20108;-72
2024/02/15 03:05:59;;;;;;;11.75;4.45;;;11.90;99.90;;;;;;5038238;28;20503;-72
2024/02/15 03:08:25;;;;;;;16.13;4.40;;;11.90;99.90;;;;;;5045503;28;20025;-73
2024/02/15 03:10:51;;;;;;;14.73;3.90;;;11.90;99.90;;;;;;5043117;28;20794;-73
2024/02/15 03:13:18;;;;;;;9.40;3.35;;;11.90;99.90;;;;;;5043250;28;20072;-72
2024/02/15 03:15:47;;;;;;;10.52;3.10;;;11.90;99.90;;;;;;5034080;28;20098;-72
2024/02/15 03:18:14;;;;;;;8.05;3.97;;;11.90;99.90;;;;;;5040932;28;20049;-72
2024/02/15 03:20:40;;;;;;;12.25;3.67;;;11.90;99.90;;;;;;5044923;28;20043;-72
2024/02/15 03:23:05;;;;;;;8.70;3.05;;;11.80;99.90;;;;;;5043345;28;20121;-72
2024/02/15 03:25:31;;;;;;;10.55;3.17;;;11.80;99.90;;;;;;5044213;28;20037;-72
2024/02/15 03:27:58;;;;;;;8.45;3.63;;;11.80;99.90;;;;;;5046120;28;20032;-73
2024/02/15 03:30:25;;;;;;;15.65;4.15;;;11.80;99.90;;;;;;5047647;28;20037;-72
2024/02/15 03:32:52;;;;;;;7.85;3.08;;;11.80;99.90;;;;;;5043194;28;20033;-73
2024/02/15 03:35:19;;;;;;;9.18;3.33;;;11.90;99.90;;;;;;5039833;28;20573;-72
2024/02/15 03:37:44;;;;;;;12.23;3.38;;;11.90;99.90;;;;;;5046330;28;20041;-72
2024/02/15 03:40:11;;;;;;;6.43;2.63;;;11.80;99.90;;;;;;5039030;28;20044;-71
2024/02/15 03:42:36;;;;;;;7.00;3.20;;;11.80;99.90;;;;;;5048004;28;20041;-74
2024/02/15 03:45:06;;;;;;;14.63;3.20;;;11.80;99.90;;;;;;5046068;28;20037;-74
2024/02/15 03:47:38;;;;;;;6.80;2.67;;;11.80;99.90;;;;;;5048342;28;20525;-73
2024/02/15 03:50:09;;;;;;;9.73;3.20;;;11.80;99.90;;;;;;5047283;28;20041;-72
2024/02/15 03:52:35;;;;;;;12.20;3.20;;;11.80;99.90;;;;;;5040908;28;20055;-74
2024/02/15 03:55:01;;;;;;;9.68;2.83;;;11.80;99.90;;;;;;5042604;28;20158;-72
2024/02/15 03:57:28;;;;;;;11.95;3.08;;;11.80;99.90;;;;;;5047362;28;20037;-73
2024/02/15 03:59:54;;;;;;;9.95;3.15;;;11.90;99.90;;;;;;5044867;28;20041;-73
2024/02/15 04:02:20;;;;;;;6.45;2.95;;;11.90;99.90;;;;;;5045707;28;20593;-72
2024/02/15 04:04:52;;;;;;;12.95;3.03;;;11.90;99.90;;;;;;5046230;28;20041;-72
2024/02/15 04:07:18;;;;;;;10.05;2.88;;;11.90;99.90;;;;;;5042810;28;20133;-73
2024/02/15 04:09:45;;;;;;;10.02;2.45;;;11.90;99.90;;;;;;5040065;28;20451;-71
2024/02/15 04:12:11;;;;;;;15.30;3.15;;;11.90;99.90;;;;;;5045061;28;20033;-74
2024/02/15 04:14:38;;;;;;;10.45;2.75;;;11.90;99.90;;;;;;5047935;28;20837;-71
2024/02/15 04:17:04;;;;;;;10.30;3.05;;;11.80;99.90;;;;;;5046840;28;20407;-72
2024/02/15 04:19:31;;;;;;;14.90;2.13;;;11.80;99.90;;;;;;5048589;28;20112;-71
2024/02/15 04:21:56;;;;;;;9.70;2.65;;;11.90;99.90;;;;;;5047491;28;20040;-72
2024/02/15 04:24:22;;;;;;;7.35;2.88;;;11.90;99.90;;;;;;5047046;28;20029;-72
2024/02/15 04:26:48;;;;;;;14.57;3.80;;;11.90;99.90;;;;;;5038913;28;20035;-72
2024/02/15 04:29:15;;;;;;;11.07;2.88;;;11.80;99.90;;;;;;5040100;28;20037;-72
2024/02/15 04:31:42;;;;;;;16.58;3.28;;;11.80;99.90;;;;;;5046080;28;20057;-72
2024/02/15 04:34:09;;;;;;;9.55;3.80;;;11.90;99.90;;;;;;5041387;28;20029;-71
2024/02/15 04:36:36;;;;;;;15.55;4.03;;;11.90;99.90;;;;;;5041898;28;20032;-72
2024/02/15 04:39:02;;;;;;;13.43;3.00;;;11.80;99.90;;;;;;5041064;28;20896;-71
2024/02/15 04:41:28;;;;;;;14.23;3.03;;;11.80;99.90;;;;;;5047468;28;20040;-73
2024/02/15 04:43:54;;;;;;;15.57;3.10;;;11.80;99.90;;;;;;5040381;28;20041;-72
2024/02/15 04:46:24;;;;;;;13.07;3.58;;;11.80;99.90;;;;;;5038513;28;20041;-72
2024/02/15 04:48:50;;;;;;;10.80;3.50;;;11.80;99.90;;;;;;5042841;28;20029;-72
2024/02/15 04:51:19;;;;;;;14.43;3.47;;;11.80;99.90;;;;;;5041612;28;20037;-74
2024/02/15 04:53:46;;;;;;;17.38;3.90;;;11.80;99.90;;;;;;5043086;28;20503;-71
2024/02/15 04:56:13;;;;;;;15.55;4.05;;;11.80;99.90;;;;;;5046261;28;20489;-72
2024/02/15 04:58:45;;;;;;;12.43;4.50;;;11.80;99.90;;;;;;5046888;28;20486;-71
2024/02/15 05:01:16;;;;;;;11.93;4.43;;;11.80;99.90;;;;;;5036683;28;20445;-72
2024/02/15 05:03:42;;;;;;;9.90;3.85;;;11.80;99.90;;;;;;5038351;28;20025;-71
2024/02/15 05:06:09;;;;;;;19.30;4.50;;;11.80;99.90;;;;;;5043302;28;20091;-74
2024/02/15 05:08:36;;;;;;;16.67;5.03;;;11.80;99.90;;;;;;5043544;28;20501;-71
2024/02/15 05:11:04;;;;;;;10.68;4.07;;;11.90;99.90;;;;;;5046683;28;20516;-73
2024/02/15 05:13:30;;;;;;;14.95;4.45;;;11.80;99.90;;;;;;5041627;28;20045;-71
2024/02/15 05:15:55;;;;;;;14.48;4.38;;;11.90;99.90;;;;;;5040249;28;20033;-72
2024/02/15 05:18:21;;;;;;;20.80;4.97;;;11.90;99.90;;;;;;5039177;28;20108;-69
2024/02/15 05:20:46;;;;;;;16.48;4.45;;;11.90;99.90;;;;;;5043235;28;20099;-73
2024/02/15 05:23:12;;;;;;;12.90;4.63;;;11.90;99.90;;;;;;5042345;28;20037;-71
2024/02/15 05:25:38;;;;;;;13.90;4.40;;;11.90;99.90;;;;;;5043993;28;20051;-71
2024/02/15 05:28:06;;;;;;;17.48;5.18;;;11.90;99.90;;;;;;5036035;28;20029;-73
2024/02/15 05:30:32;;;;;;;16.35;5.28;;;11.90;99.90;;;;;;5039966;28;20033;-71
2024/02/15 05:32:58;;;;;;;14.27;4.85;;;11.90;99.90;;;;;;5044063;28;20120;-72
2024/02/15 05:35:24;;;;;;;16.13;4.78;;;11.90;99.90;;;;;;5040871;28;20116;-71
2024/02/15 05:37:52;;;;;;;18.48;4.72;;;11.90;99.90;;;;;;5040019;28;20036;-72
2024/02/15 05:40:19;;;;;;;14.48;5.20;;;11.90;99.90;;;;;;5041117;28;20044;-72
2024/02/15 05:42:45;;;;;;;12.05;5.13;;;11.90;99.90;;;;;;5040082;28;20461;-72
2024/02/15 05:45:26;;;;;;;19.55;5.30;;;11.90;99.90;;;;;;5040330;28;20087;-71
2024/02/15 05:47:54;;;;;;;;;;;11.90;99.90;;;;;;5044844;28;20068;-72
2024/02/15 05:50:21;;;;;;;15.88;5.47;;;11.80;99.90;;;;;;5044438;28;19913;-71
2024/02/15 05:52:47;;;;;;;21.27;5.57;;;11.90;99.90;;;;;;5041469;28;20506;-72
2024/02/15 05:55:16;;;;;;;14.02;4.97;;;11.90;99.90;;;;;;5038562;28;20623;-72
2024/02/15 05:57:45;;;;;;;18.73;4.95;;;11.90;99.90;;;;;;5041910;28;20079;-73
2024/02/15 06:00:11;;;;;;;18.23;4.80;;;11.80;99.90;;;;;;5033975;28;20383;-73
2024/02/15 06:02:37;;;;;;;13.65;5.35;;;11.90;99.90;;;;;;5037192;28;20036;-72
2024/02/15 06:05:04;;;;;;;18.73;4.63;;;11.90;99.90;;;;;;5035489;28;20560;-72
2024/02/15 06:07:31;;;;;;;14.90;5.55;;;11.90;99.90;;;;;;5037497;28;20104;-72
2024/02/15 06:10:02;;;;;;;19.98;5.63;;;11.90;99.90;;;;;;5032848;28;20052;-72
2024/02/15 06:12:28;;;;;;;17.02;4.95;;;11.90;99.90;;;;;;5037467;28;20437;-74
2024/02/15 06:14:54;;;;;;;13.93;5.00;;;11.90;99.90;;;;;;5044250;28;20082;-72
2024/02/15 06:17:19;;;;;;;14.57;4.85;;;11.90;99.90;;;;;;5044137;28;20108;-74
2024/02/15 06:19:45;;;;;;;22.27;5.45;;;11.90;99.90;;;;;;5040662;28;20036;-74
2024/02/15 06:22:12;;;;;;;11.93;5.05;;;11.90;99.90;;;;;;5035411;28;20127;-79
2024/02/15 06:24:38;;;;;;;15.15;5.07;;;11.90;99.90;;;;;;5047557;28;20048;-74
2024/02/15 06:27:03;;;;;;;22.50;6.32;;;11.90;99.90;;;;;;5046044;28;20028;-75
2024/02/15 06:40:26;;;;;;;9.85;4.88;;;11.90;99.90;;;;;;5043165;28;20040;-71
2024/02/15 06:42:51;;;;;;;15.95;5.85;;;11.90;99.90;;;;;;5042320;28;20025;-73
2024/02/15 06:45:17;;;;;;;14.57;5.13;;;11.90;99.90;;;;;;5039691;28;20114;-72
2024/02/15 06:47:43;;;;;;;10.95;5.10;;;11.90;99.90;;;;;;5039474;28;20029;-73
2024/02/15 06:50:13;;;;;;;9.73;4.32;;;11.90;99.90;;;;;;5042716;28;20114;-73
2024/02/15 06:52:39;;;;;;;11.17;4.47;;;11.80;99.90;;;;;;5043857;28;20258;-71
2024/02/15 06:55:11;;;;;;;9.27;4.57;;;11.90;99.90;;;;;;5038758;28;20033;-73
2024/02/15 06:57:40;;;;;;;8.90;4.43;;;11.90;99.90;;;;;;5040969;28;20533;-71
2024/02/15 07:00:07;;;;;;;13.60;5.78;;;11.90;99.90;;;;;;5042674;28;20037;-72
2024/02/15 07:02:36;;;;;;;12.45;4.68;;;11.90;99.90;;;;;;5042676;28;20428;-72
2024/02/15 07:05:04;;;;;;;9.05;4.07;;;11.90;99.90;;;;;;5040258;28;20156;-71
2024/02/15 07:07:31;;;;;;;7.63;4.07;;;11.90;99.90;;;;;;5046700;28;20037;-70
2024/02/15 07:09:57;;;;;;;8.07;4.25;;;11.90;99.90;;;;;;5046553;28;20041;-72
2024/02/15 07:12:23;;;;;;;11.15;3.80;;;11.90;99.90;;;;;;5027473;28;20080;-72
2024/02/15 07:14:48;;;;;;;14.10;4.60;;;11.90;99.90;;;;;;5028789;28;20025;-72
2024/02/15 07:17:14;;;;;;;12.93;4.05;;;11.90;99.90;;;;;;5027325;28;20512;-71
2024/02/15 07:19:49;;;;;;;8.43;4.38;;;11.90;99.90;;;;;;5046564;28;20071;-71
2024/02/15 07:22:15;;;;;;;11.45;4.30;;;11.90;99.90;;;;;;5041517;28;20064;-70
2024/02/15 07:24:40;;;;;;;11.05;4.38;;;11.90;99.90;;;;;;5061959;28;20029;-71
2024/02/15 07:27:06;;;;;;;6.25;3.70;;;11.90;99.90;;;;;;5067269;28;20063;-70
2024/02/15 07:29:32;;;;;;;12.45;3.90;;;11.90;99.90;;;;;;5069162;28;20028;-72
2024/02/15 07:32:00;;;;;;;9.98;3.88;;;11.90;99.90;;;;;;5061744;28;20405;-71
2024/02/15 07:34:26;;;;;;;9.30;4.10;;;11.90;99.90;;;;;;5060765;28;20033;-71
2024/02/15 07:36:52;;;;;;;8.68;3.58;;;11.90;99.90;;;;;;5047049;28;20040;-72
2024/02/15 07:39:24;;;;;;;7.65;3.53;;;11.90;99.90;;;;;;5049213;28;20048;-71
2024/02/15 07:41:54;;;;;;;7.78;4.10;;;11.80;99.90;;;;;;5028606;28;20036;-71
2024/02/15 07:44:20;;;;;;;10.70;3.60;;;11.80;99.90;;;;;;5042164;28;20075;-75
2024/02/15 07:46:46;;;;;;;10.80;4.40;;;11.90;99.90;;;;;;5045095;28;20032;-72
2024/02/15 07:49:11;;;;;;;8.38;3.95;;;11.80;99.90;;;;;;5042681;28;20025;-71
2024/02/15 07:51:37;;;;;;;7.22;3.25;;;11.90;99.90;;;;;;5044072;28;20037;-72
2024/02/15 07:54:03;;;;;;;10.02;3.25;;;11.90;99.90;;;;;;5041906;28;20032;-72
2024/02/15 07:56:28;;;;;;;12.25;3.95;;;11.90;99.90;;;;;;5046990;28;20055;-71
2024/02/15 07:58:54;;;;;;;15.27;4.20;;;11.90;99.90;;;;;;5038005;28;20076;-72
2024/02/15 08:01:23;;;;;;;10.70;4.40;;;11.90;99.90;;;;;;5044602;28;20089;-72
2024/02/15 08:03:49;;;;;;;7.70;3.33;;;11.90;99.90;;;;;;5039854;28;20029;-73
2024/02/15 08:06:16;;;;;;;9.43;4.00;;;11.90;99.90;;;;;;5042172;28;20553;-71
2024/02/15 08:08:45;;;;;;;10.15;3.70;;;11.90;99.90;;;;;;5042667;28;20498;-74
2024/02/15 08:11:14;;;;;;;12.68;4.28;;;11.90;99.90;;;;;;5039035;28;20060;-71
2024/02/15 08:13:49;;;;;;;9.35;4.13;;;11.90;99.90;;;;;;5042738;28;20187;-73
2024/02/15 08:16:19;;;;;;;9.13;3.97;;;11.90;99.90;;;;;;5047403;28;20044;-70
2024/02/15 08:18:45;;;;;;;8.95;3.45;;;12.00;99.90;;;;;;5038168;28;20098;-71
2024/02/15 08:21:11;;;;;;;6.80;3.08;;;12.00;99.90;;;;;;5037680;28;20037;-71
2024/02/15 08:23:37;;;;;;;10.05;3.33;;;11.90;99.90;;;;;;5045380;28;20568;-72
2024/02/15 08:26:03;;;;;;;8.10;3.22;;;12.00;99.90;;;;;;5045920;28;20033;-71
2024/02/15 08:28:29;;;;;;;9.43;3.00;;;12.00;99.90;;;;;;5046173;28;20036;-72
2024/02/15 08:30:58;;;;;;;4.72;2.20;;;12.00;99.90;;;;;;5042238;28;20086;-72
2024/02/15 08:33:25;;;;;;;8.30;3.33;;;12.10;99.90;;;;;;5038431;28;20033;-70
2024/02/15 08:35:50;;;;;;;6.05;2.70;;;12.10;99.90;;;;;;5041894;28;20051;-72
2024/02/15 08:38:17;;;;;;;7.03;2.25;;;12.10;99.90;;;;;;5034433;28;20076;-69
2024/02/15 08:40:44;;;;;;;6.65;2.10;;;12.10;99.90;;;;;;5040945;28;20082;-71
2024/02/15 08:43:09;;;;;;;7.03;2.60;;;12.10;99.90;;;;;;5042432;28;20036;-72
2024/02/15 08:45:35;;;;;;;6.43;2.28;;;12.20;99.90;;;;;;5047425;28;20513;-72
2024/02/15 08:48:04;;;;;;;8.25;2.63;;;12.20;99.90;;;;;;5045559;28;20112;-71
2024/02/15 08:50:30;;;;;;;6.13;2.25;;;12.20;99.90;;;;;;5046928;28;20093;-71
2024/02/15 08:52:56;;;;;;;8.18;2.35;;;12.20;99.90;;;;;;5045334;28;20025;-71
2024/02/15 08:55:26;;;;;;;7.15;2.00;;;12.10;99.90;;;;;;5041698;28;20029;-72
2024/02/15 08:57:52;;;;;;;7.40;2.10;;;12.10;99.90;;;;;;5036627;28;20029;-71
2024/02/15 09:00:18;;;;;;;6.53;2.15;;;12.10;99.90;;;;;;5037158;28;20029;-71
2024/02/15 09:02:48;;;;;;;7.68;2.42;;;12.10;99.90;;;;;;5042570;28;20530;-71
2024/02/15 09:05:14;;;;;;;9.48;2.20;;;12.10;99.90;;;;;;5060110;28;20059;-71
2024/02/15 09:07:44;;;;;;;6.50;2.00;;;12.10;99.90;;;;;;5064441;28;20438;-72
2024/02/15 09:10:13;;;;;;;5.88;1.60;;;12.10;99.90;;;;;;5065360;28;20058;-73
2024/02/15 09:12:40;;;;;;;12.20;2.50;;;12.20;99.90;;;;;;5066495;28;20043;-70
2024/02/15 09:15:07;;;;;;;8.35;2.67;;;12.20;99.90;;;;;;5047229;28;20029;-71
2024/02/15 09:17:38;;;;;;;7.25;2.38;;;12.10;99.90;;;;;;5066455;28;20042;-71
2024/02/15 09:20:08;;;;;;;10.52;2.38;;;12.10;99.90;;;;;;5065243;28;20111;-71
2024/02/15 09:22:35;;;;;;;9.88;2.78;;;12.20;99.90;;;;;;5062998;28;20056;-71
2024/02/15 09:25:02;;;;;;;8.88;2.33;;;12.20;99.90;;;;;;5061978;28;20043;-72
2024/02/15 09:27:27;;;;;;;7.50;2.10;;;12.30;99.90;;;;;;5065653;28;20038;-73
2024/02/15 09:29:53;;;;;;;10.40;2.17;;;12.30;99.90;;;;;;5065581;28;20028;-73
2024/02/15 09:32:18;;;;;;;6.40;2.05;;;12.30;99.90;;;;;;5066194;28;20533;-71
2024/02/15 09:34:44;;;;;;;9.32;2.65;;;12.30;99.90;;;;;;5066456;28;20036;-72
2024/02/15 09:37:09;;;;;;;9.88;2.50;;;12.30;99.90;;;;;;5064944;28;20041;-72
2024/02/15 09:39:37;;;;;;;5.25;2.15;;;12.40;99.90;;;;;;5061936;28;20035;-72
2024/02/15 09:42:03;;;;;;;11.30;2.10;;;12.40;99.90;;;;;;5036886;28;20034;-71
2024/02/15 09:44:29;;;;;;;11.50;2.80;;;12.40;99.90;;;;;;5043754;28;20040;-68
2024/02/15 09:47:05;;;;;;;5.93;1.80;;;12.50;99.90;;;;;;5045276;28;20040;-70
2024/02/15 09:49:39;;;;;;;7.00;1.38;;;12.40;99.90;;;;;;5041279;28;20106;-70
2024/02/15 09:52:11;;;;;;;7.13;1.83;;;12.40;99.90;;;;;;5068188;28;20062;-73
2024/02/15 09:54:44;;;;;;;6.72;2.00;;;12.40;99.90;;;;;;5050749;28;20028;-70
2024/02/15 09:57:11;;;;;;;7.60;1.90;;;12.50;99.90;;;;;;5065511;28;20035;-74
2024/02/15 09:59:37;;;;;;;6.22;2.03;;;12.60;99.90;;;;;;5062175;28;20032;-74
2024/02/15 10:02:03;;;;;;;7.22;1.77;;;12.60;99.90;;;;;;5037074;28;20498;-71
2024/02/15 10:04:29;;;;;;;6.25;2.00;;;12.60;99.90;;;;;;5042960;28;20039;-70
2024/02/15 10:06:55;;;;;;;7.78;1.40;;;12.70;99.90;;;;;;5035587;28;20117;-73
2024/02/15 10:09:30;;;;;;;4.88;1.45;;;12.70;99.90;;;;;;5042157;28;20037;-72
2024/02/15 10:12:00;;;;;;;6.20;1.55;;;12.70;99.90;;;;;;5042011;28;20119;-71
2024/02/15 10:14:27;;;;;;;9.60;2.08;;;12.70;99.90;;;;;;5046592;28;20106;-74
2024/02/15 10:16:54;;;;;;;3.05;1.30;;;12.80;99.90;;;;;;5045695;28;20029;-71
2024/02/15 10:19:24;;;;;;;7.75;2.08;;;12.80;99.90;;;;;;5045937;28;20655;-70
2024/02/15 10:21:57;;;;;;;7.22;1.80;;;12.80;99.90;;;;;;5044033;28;20040;-71
2024/02/15 10:24:24;;;;;;;5.57;1.65;;;12.80;99.90;;;;;;5044511;28;20049;-71
2024/02/15 10:26:50;;;;;;;6.43;1.42;;;12.90;99.90;;;;;;5042876;28;20139;-71
2024/02/15 10:29:17;;;;;;;8.80;2.10;;;13.00;99.90;;;;;;5042906;28;20661;-71
2024/02/15 10:32:00;;;;;;;6.72;1.65;;;13.10;99.90;;;;;;5042003;28;20486;-71
2024/02/15 10:34:30;;;;;;;5.22;1.58;;;13.10;99.90;;;;;;5041728;28;20048;-72
2024/02/15 10:37:10;;;;;;;6.17;1.37;;;13.10;99.90;;;;;;5044580;28;20466;-71
2024/02/15 10:39:35;;;;;;;7.30;1.70;;;13.20;99.90;;;;;;5045631;28;20041;-72
2024/02/15 10:42:01;;;;;;;9.50;2.25;;;13.20;99.90;;;;;;5045518;28;20492;-71
2024/02/15 10:44:27;;;;;;;6.93;1.40;;;13.20;99.90;;;;;;5048835;28;20200;-73
2024/02/15 10:46:53;;;;;;;10.15;2.17;;;13.30;99.90;;;;;;5044528;28;20052;-72
2024/02/15 10:49:20;;;;;;;6.03;1.63;;;13.30;99.90;;;;;;5047376;28;20032;-71
2024/02/15 10:51:55;;;;;;;6.95;1.73;;;13.30;99.90;;;;;;5036814;28;20103;-74
2024/02/15 10:54:50;;;;;;;4.70;1.40;;;13.40;99.90;;;;;;5045019;28;20040;-68
2024/02/15 10:57:22;;;;;;;8.68;1.77;;;13.40;99.90;;;;;;5036231;28;20041;-72
2024/02/15 10:59:58;;;;;;;8.13;1.58;;;13.40;99.90;;;;;;5046165;28;20033;-71
2024/02/15 11:02:31;;;;;;;7.13;1.67;;;13.40;99.90;;;;;;5025560;28;20025;-72
2024/02/15 11:05:09;;;;;;;4.85;1.92;;;13.40;99.90;;;;;;5049225;28;20398;-71
2024/02/15 11:07:38;;;;;;;5.63;2.85;;;13.30;99.90;;;;;;5031465;28;20564;-71
2024/02/15 11:10:10;;;;;;;7.57;2.28;;;13.30;99.90;;;;;;5052238;28;20044;-74
2024/02/15 11:12:37;;;;;;;5.55;1.60;;;13.30;99.90;;;;;;5025667;28;20144;-70
2024/02/15 11:15:03;;;;;;;11.10;2.95;;;13.30;99.90;;;;;;5027362;28;20042;-71
2024/02/15 11:17:43;;;;;;;7.75;2.47;;;13.40;99.90;;;;;;5026866;28;20043;-69
2024/02/15 11:20:38;;;;;;;13.67;3.07;;;13.40;99.90;;;;;;5045786;28;20506;-73
2024/02/15 11:23:04;;;;;;;9.15;2.42;;;13.50;99.90;;;;;;5037574;28;20271;-72
2024/02/15 11:25:34;;;;;;;6.43;2.00;;;13.50;99.90;;;;;;5038584;28;20037;-68
2024/02/15 11:28:21;;;;;;;8.97;2.40;;;13.50;99.90;;;;;;5040583;28;20482;-70
2024/02/15 11:30:50;;;;;;;5.30;2.15;;;13.50;99.90;;;;;;5045760;28;20917;-72
2024/02/15 11:33:35;;;;;;;7.40;2.25;;;13.50;99.90;;;;;;5040580;28;20041;-72
2024/02/15 11:36:11;;;;;;;6.47;2.30;;;13.60;99.90;;;;;;5043898;28;20131;-70
2024/02/15 11:38:40;;;;;;;7.35;2.33;;;13.60;99.90;;;;;;5040950;28;20099;-71
2024/02/15 11:41:10;;;;;;;11.83;2.73;;;13.70;99.90;;;;;;5042481;28;20087;-74
2024/02/15 11:43:49;;;;;;;7.28;2.42;;;13.80;99.90;;;;;;5039192;28;20060;-69
2024/02/15 11:46:18;;;;;;;5.80;2.30;;;13.90;99.90;;;;;;5037448;28;20045;-73
2024/02/15 11:48:44;;;;;;;9.00;2.08;;;14.00;99.90;;;;;;5044962;28;20040;-72
2024/02/15 11:51:11;;;;;;;9.55;2.83;;;14.00;99.90;;;;;;5046152;28;20508;-70
2024/02/15 11:53:37;;;;;;;6.57;2.22;;;14.10;99.90;;;;;;5043423;28;20034;-71
2024/02/15 11:56:04;;;;;;;6.45;2.25;;;14.10;99.90;;;;;;5039921;28;20116;-73
2024/02/15 11:58:41;;;;;;;4.68;2.72;;;14.20;99.90;;;;;;5041874;28;20502;-72
2024/02/15 12:20:32;;;;;;;7.47;2.55;;;14.60;99.90;;;;;;5048409;28;20036;-70
2024/02/15 12:23:00;;;;;;;5.97;2.63;;;14.60;99.90;;;;;;5047266;28;20029;-72
2024/02/15 12:25:27;;;;;;;4.80;1.77;;;14.60;99.90;;;;;;5062680;28;20162;-72
2024/02/15 12:27:56;;;;;;;4.20;1.90;;;14.70;99.90;;;;;;5023661;28;1031554;-71
2024/02/15 12:30:25;;;;;;;5.22;1.95;;;14.70;99.90;;;;;;5041424;28;20062;-70
2024/02/15 12:32:51;;;;;;;5.93;2.22;;;14.70;99.90;;;;;;5057853;28;20083;-74
2024/02/15 12:35:19;;;;;;;6.10;2.15;;;14.70;99.90;;;;;;5059947;28;20113;-71
2024/02/15 12:38:05;;;;;;;10.13;2.47;;;14.80;99.90;;;;;;5046265;28;20501;-73
2024/02/15 12:40:33;;;;;;;4.28;1.70;;;14.80;99.90;;;;;;5056241;28;20044;-74
2024/02/15 12:42:59;;;;;;;7.68;2.67;;;14.80;99.90;;;;;;5066855;28;20053;-73
2024/02/15 12:45:29;;;;;;;4.85;1.58;;;14.90;99.90;;;;;;5048817;28;20551;-72
2024/02/15 12:47:56;;;;;;;3.88;1.70;;;14.90;99.90;;;;;;5040529;28;20052;-72
2024/02/15 12:50:23;;;;;;;5.10;1.75;;;15.00;99.90;;;;;;5057573;28;20036;-73
2024/02/15 12:52:50;;;;;;;3.20;1.38;;;15.00;99.90;;;;;;5057291;28;20047;-71
2024/02/15 12:55:20;;;;;;;3.78;1.60;;;15.10;99.90;;;;;;5066386;28;20178;-73
2024/02/15 12:57:56;;;;;;;3.03;1.40;;;15.00;99.90;;;;;;5066277;28;20044;-73
2024/02/15 13:00:28;;;;;;;4.43;1.10;;;15.00;99.90;;;;;;5057242;28;20508;-73
2024/02/15 13:02:55;;;;;;;3.17;1.30;;;15.00;99.90;;;;;;5039560;28;20059;-74
2024/02/15 13:05:22;;;;;;;4.28;0.80;;;15.00;99.90;;;;;;5039141;28;20044;-70
2024/02/15 13:07:49;;;;;;;7.63;2.33;;;15.00;99.90;;;;;;5058423;28;20033;-71
2024/02/15 13:10:15;;;;;;;4.43;1.75;;;15.20;99.90;;;;;;5067324;28;20040;-70
2024/02/15 13:12:44;;;;;;;7.75;1.75;;;15.20;99.90;;;;;;5064250;28;20073;-73
2024/02/15 13:15:14;;;;;;;2.92;1.13;;;15.30;99.90;;;;;;5062118;28;20044;-72